Weather observations for the past three days for
Sebastian Municipal Airport
Imperial (Metric)
Date Time (edt) Wind (mph) Vis. (mi.) Weather Sky Cond. Temperature (ºF) Relative Humidity Wind Chill (°F) Heat Index (°F) Pressure Precipitation (in)
Air Dwpt 6 hour altimeter (in) sea level (mb) 1 hr 3 hr 6 hr
Max. Min.
09 17:35 SE 13 G 17 10.00 Fair CLR 89.6 77 67% 103 29.85 0.0
09 17:15 SE 12 10.00 Fair CLR 89.6 77 67% 103 29.85 0.0
09 16:55 SE 15 10.00 Fair CLR 89.6 77 67% 103 29.85 0.0
09 16:35 SE 13 10.00 Fair CLR 89.6 75.2 63% 100 29.86 0.0
09 16:15 SE 12 10.00 Fair CLR 91.4 75.2 59% 103 29.86 0.0
09 15:55 S 10 10.00 Fair CLR 95 60.8 32% 95 29.87 0.0
09 15:35 SW 12 G 18 10.00 Fair CLR 95 60.8 32% 95 29.87 0.0
09 15:15 SW 12 G 16 10.00 Fair CLR 95 62.6 34% 96 29.88 0.0
09 14:55 SW 9 G 20 10.00 Fair CLR 95 62.6 34% 96 29.89 0.0
09 14:35 S 14 G 21 10.00 Fair CLR 95 62.6 34% 96 29.89 0.0
09 14:15 SW 14 10.00 Fair CLR 95 62.6 34% 96 29.89 0.0
09 13:55 SW 15 G 20 10.00 Fair CLR 95 64.4 94.5 75 36% 97 29.9 0.0
09 13:35 S 14 G 20 10.00 Fair CLR 93.2 66.2 41% 96 29.9 0.0
09 13:15 S 12 10.00 Fair CLR 93.2 66.2 41% 96 29.9 0.0
09 12:55 S 15 G 20 10.00 Fair CLR 93.2 68 44% 98 29.91 0.0
09 12:35 SW 9 G 18 10.00 Fair CLR 91.4 69.8 49% 97 29.92 0.0
09 12:15 SW 8 G 21 10.00 Fair CLR 91.4 68 46% 96 29.92 0.0
09 11:55 SW 13 G 18 10.00 Fair CLR 89.6 68 49% 93 29.93 0.0
09 11:35 S 10 10.00 Fair CLR 89.6 68 49% 93 29.94 0.0
09 11:15 SW 8 10.00 Fair CLR 89.6 71.6 55% 96 29.95 0.0
09 10:55 SW 10 10.00 Fair CLR 87.8 71.6 59% 94 29.95 0.0
09 10:35 S 7 G 16 10.00 Fair CLR 86 73.4 66% 93 29.95 0.0
09 10:15 S 12 G 17 10.00 Fair CLR 84.2 75.2 74% 92 29.94 0.0
09 09:55 S 10 10.00 Fair CLR 82.4 77 84% 91 29.94 0.0
09 08:55 SW 13 10.00 Partly Cloudy SCT010 77 75.2 94% 78 29.94 0.0
09 08:35 S 6 10.00 A Few Clouds FEW010 77 75.2 94% 78 29.94 0.0
09 08:15 SW 7 10.00 Partly Cloudy SCT010 77 75.2 94% 78 29.93 0.0
09 07:55 S 7 10.00 Mostly Cloudy BKN010 75.2 75.2 75.4 71.4 100% 73 29.93 0.0
09 07:35 S 5 6.00 Fog/Mist FEW002 SCT010 75.2 75.2 100% 73 29.93 0.0
09 07:15 S 5 5.00 Fog/Mist FEW002 75.2 73.4 94% 74 29.92 0.0
09 06:55 S 6 5.00 Fog/Mist SCT002 73.4 73.4 100% 29.92 0.0
09 06:35 S 6 4.00 Fog/Mist BKN002 75.2 75.2 100% 73 29.91 0.0
09 06:15 S 6 5.00 Fog/Mist OVC004 75.2 75.2 100% 73 29.91 0.0
09 05:55 S 2 7.00 Fog/Mist OVC004 75.2 75.2 100% 73 29.92 0.0
09 05:35 Vrbl 2 8.00 Overcast OVC006 75.2 73.4 94% 74 29.91 0.0
09 05:15 SE 2 3.00 Fog/Mist OVC008 73.4 73.4 100% 29.91 0.0
09 04:55 SE 1 9.00 Overcast OVC008 73.4 73.4 100% 29.91 0.0
09 04:35 SE 3 5.00 Fog/Mist OVC008 73.4 73.4 100% 29.92 0.0
09 04:15 SE 3 7.00 Overcast OVC010 73.4 73.4 100% 29.92 0.0
09 03:55 SE 2 8.00 Overcast BKN010 OVC046 71.6 71.6 100% 29.92 0.0
09 03:35 N 2 8.00 Overcast FEW010 SCT044 OVC065 71.6 71.6 100% 29.92 0.0
09 03:15 N 5 8.00 Overcast OVC065 71.6 71.6 100% 29.92 0.0
09 02:55 NE 1 6.00 Fog/Mist OVC065 71.6 71.6 100% 29.93 0.0
09 02:35 N 3 6.00 Fog/Mist OVC065 71.6 71.6 100% 29.93 0.0
09 02:15 Calm 8.00 Overcast OVC065 73.4 71.6 94% 29.93 0.0
09 01:55 N 3 9.00 Mostly Cloudy BKN065 73.4 73.4 80.1 72.7 100% 29.94 0.0
09 01:35 W 3 9.00 A Few Clouds FEW065 73.4 73.4 100% 29.94 0.0
09 01:15 SW 5 10.00 Partly Cloudy SCT065 73.4 73.4 100% 29.94 0.0
09 00:55 SW 7 9.00 Mostly Cloudy BKN065 73.4 73.4 100% 29.95 0.0
09 00:35 SW 3 10.00 Fair CLR 75.2 75.2 100% 73 29.94 0.0
09 00:15 SW 5 10.00 Fair CLR 75.2 75.2 100% 73 29.94 0.0
08 23:55 S 5 10.00 Fair CLR 77 75.2 94% 78 29.94 0.0
08 23:35 S 3 10.00 Fair CLR 77 75.2 94% 78 29.94 0.0
08 23:15 S 6 10.00 Fair CLR 77 75.2 94% 78 29.94 0.0
08 22:35 S 6 10.00 Fair CLR 77 75.2 94% 78 29.94 0.0
08 22:15 S 6 10.00 Fair CLR 78.8 75.2 89% 82 29.94 0.0
08 21:55 SE 5 10.00 Fair CLR 78.8 77 94% 83 29.93 0.0
08 21:35 SE 6 10.00 Fair CLR 78.8 75.2 89% 82 29.93 0.0
08 21:15 SE 6 10.00 Fair CLR 78.8 75.2 89% 82 29.93 0.0
08 20:55 SE 6 10.00 Fair CLR 78.8 75.2 89% 82 29.93 0.0
08 20:35 SE 6 10.00 Fair CLR 78.8 75.2 89% 82 29.92 0.0
08 20:15 SE 6 10.00 Fair CLR 78.8 75.2 89% 82 29.92 0.0
08 19:55 SE 6 10.00 Fair CLR 78.8 75.2 87.3 80.1 89% 82 29.91 0.0
08 19:35 SE 9 10.00 Fair CLR 80.6 75.2 84% 86 29.89 0.0
08 18:55 SE 10 10.00 Fair CLR 82.4 73.4 74% 88 29.89 0.0
08 18:36 SE 9 10.00 Fair CLR 82.4 75.2 79% 89 29.88 0.0
08 18:15 SE 14 G 18 10.00 Fair CLR 84.2 75.2 74% 92 29.88 0.0
08 17:55 SE 13 10.00 Fair CLR 84.2 75.2 74% 92 29.89 0.0
08 17:35 E 12 10.00 Fair CLR 84.2 75.2 74% 92 29.89 0.0
08 17:15 E 10 G 16 10.00 Fair CLR 84.2 75.2 74% 92 29.9 0.0
08 16:55 E 13 10.00 Fair CLR 84.2 75.2 74% 92 29.9 0.0
08 16:35 E 13 10.00 Fair CLR 84.2 75.2 74% 92 29.91 0.0
08 16:15 E 13 10.00 Fair CLR 84.2 75.2 74% 92 29.91 0.0
08 15:55 E 14 10.00 Fair CLR 86 75.2 70% 95 29.92 0.0
08 15:35 E 12 G 17 10.00 Fair CLR 86 75.2 70% 95 29.93 0.0
08 15:15 E 14 10.00 Fair CLR 86 75.2 70% 95 29.93 0.0
08 14:55 E 14 G 17 10.00 Fair CLR 86 73.4 66% 93 29.94 0.0
08 14:35 E 13 10.00 Fair CLR 86 73.4 66% 93 29.95 0.0
08 14:15 NE 13 10.00 Fair CLR 86 73.4 66% 93 29.95 0.0
08 13:35 E 14 10.00 Fair CLR 86 73.4 66% 93 29.97 0.0
08 13:15 NE 13 10.00 Fair CLR 86 73.4 66% 93 29.97 0.0
08 12:55 E 10 10.00 A Few Clouds FEW039 FEW050 87.8 73.4 62% 96 29.98 0.0
08 12:35 NE 13 9.00 Partly Cloudy FEW034 SCT039 SCT048 86 71.6 62% 92 29.98 0.0
08 12:15 NE 10 9.00 Mostly Cloudy SCT034 BKN048 86 73.4 66% 93 29.99 0.0
08 11:55 NE 9 10.00 Partly Cloudy FEW032 SCT048 87.8 73.4 62% 96 30 0.0
08 11:35 N 9 10.00 Partly Cloudy SCT028 SCT042 86 73.4 66% 93 30 0.0
08 11:15 Vrbl 5 10.00 Partly Cloudy FEW028 SCT042 82.4 73.4 74% 88 30 0.0
08 10:55 NW 7 8.00 Partly Cloudy SCT026 SCT037 84.2 73.4 70% 91 30 0.0
08 10:35 N 5 10.00 Partly Cloudy SCT024 SCT029 84.2 73.4 70% 91 30 0.0
08 10:15 Vrbl 6 10.00 Partly Cloudy SCT022 82.4 73.4 74% 88 30 0.0
08 09:55 N 8 10.00 Fair CLR 82.4 73.4 74% 88 30 0.0
08 09:35 Vrbl 5 10.00 Fair CLR 80.6 73.4 79% 85 30 0.0
08 09:15 NW 7 10.00 Fair CLR 78.8 73.4 84% 82 29.99 0.0
08 08:55 NW 5 10.00 Fair CLR 77 71.6 83% 78 29.99 0.0
08 08:35 W 3 10.00 Fair CLR 75.2 71.6 89% 75 29.99 0.0
08 08:15 W 3 10.00 Fair CLR 73.4 69.8 89% 29.99 0.0
08 07:56 W 5 10.00 A Few Clouds FEW021 71.6 68 88% 29.98 0.0
08 07:35 W 3 10.00 Light Rain SCT019 69.8 68 94% 29.97 0.0
08 07:15 NW 5 10.00 Overcast OVC017 68 66.2 94% 29.97 0.0
08 06:55 W 3 10.00 Overcast OVC015 66.2 66.2 100% 29.96 0.0
08 06:15 W 1 10.00 Fair CLR 64.4 64.4 100% 29.94 0.0
08 05:55 W 3 10.00 Fair CLR 64.4 64.4 100% 29.94 0.0
08 05:35 SW 2 10.00 Fair CLR 64.4 64.4 100% 29.94 0.0
08 05:15 S 2 10.00 Fair CLR 66.2 64.4 94% 29.93 0.0
08 04:55 W 2 10.00 Fair CLR 66.2 64.4 94% 29.93 0.0
08 04:35 W 2 10.00 Fair CLR 66.2 64.4 94% 29.93 0.0
08 04:15 W 2 10.00 Fair CLR 64.4 62.6 94% 29.93 0.0
08 03:55 W 5 10.00 Fair CLR 66.2 62.6 88% 29.93 0.0
08 03:35 W 5 10.00 Fair CLR 68 64.4 88% 29.94 0.0
08 03:15 SW 2 10.00 Fair CLR 68 64.4 88% 29.94 0.0
08 02:55 SW 2 10.00 Fair CLR 68 64.4 88% 29.94 0.0
08 02:35 SW 5 10.00 Fair CLR 69.8 64.4 83% 29.94 0.0
08 02:15 S 5 10.00 Fair CLR 69.8 64.4 83% 29.95 0.0
08 01:55 SW 5 10.00 Fair CLR 69.8 64.4 81.5 70.2 83% 29.95 0.0
08 01:35 SW 5 10.00 Fair CLR 71.6 66.2 83% 29.95 0.0
08 01:15 W 3 10.00 Fair CLR 71.6 68 88% 29.96 0.0
08 00:55 W 3 10.00 Fair CLR 71.6 68 88% 29.95 0.0
08 00:35 SW 5 10.00 Fair CLR 71.6 69.8 94% 29.95 0.0
08 00:15 SW 5 10.00 Fair CLR 73.4 69.8 89% 29.94 0.0
07 23:55 SW 6 10.00 Fair CLR 73.4 71.6 94% 29.95 0.0
07 23:35 SW 6 10.00 Fair CLR 75.2 71.6 89% 75 29.95 0.0
07 23:15 S 6 10.00 Fair CLR 75.2 71.6 89% 75 29.95 0.0
07 22:55 S 8 10.00 Fair CLR 77 73.4 89% 78 29.94 0.0
07 22:35 S 7 10.00 Fair CLR 77 73.4 89% 78 29.94 0.0
07 22:15 SW 5 10.00 Fair CLR 77 73.4 89% 78 29.93 0.0
07 21:55 S 6 10.00 Fair CLR 78.8 73.4 84% 82 29.93 0.0
07 21:35 S 6 10.00 Fair CLR 78.8 73.4 84% 82 29.92 0.0
07 21:15 S 5 10.00 Fair CLR 78.8 73.4 84% 82 29.93 0.0
07 20:55 S 6 10.00 Fair CLR 80.6 73.4 79% 85 29.92 0.0
07 20:35 S 7 10.00 Fair CLR 80.6 73.4 79% 85 29.92 0.0
07 20:15 S 8 10.00 Fair CLR 80.6 75.2 84% 86 29.92 0.0
07 19:55 SE 7 10.00 Fair CLR 80.6 73.4 91.4 81.5 79% 85 29.91 0.0
07 19:35 SE 10 10.00 Fair CLR 82.4 75.2 79% 89 29.91 0.0
07 19:15 SE 7 10.00 Fair CLR 84.2 73.4 70% 91 29.91 0.0
07 18:55 SE 10 10.00 Fair CLR 84.2 75.2 74% 92 29.9 0.0
07 18:35 SE 14 G 17 10.00 Fair CLR 84.2 75.2 74% 92 29.9 0.0
07 18:15 SE 13 10.00 Fair CLR 86 75.2 70% 95 29.9 0.0
07 17:55 SE 13 10.00 Fair CLR 86 73.4 66% 93 29.91 0.0
07 17:36 E 12 10.00 Fair CLR 86 73.4 66% 93 29.91 0.0
07 17:15 SE 10 G 16 10.00 Fair CLR 87.8 73.4 62% 96 29.91 0.0
07 16:55 SE 13 10.00 A Few Clouds FEW070 86 73.4 66% 93 29.91 0.0
07 16:35 E 13 10.00 Partly Cloudy SCT070 87.8 73.4 62% 96 29.92 0.0
07 16:15 E 12 10.00 Mostly Cloudy BKN060 86 71.6 62% 92 29.92 0.0
07 15:55 E 10 10.00 Partly Cloudy SCT060 87.8 73.4 62% 96 29.93 0.0
07 15:35 E 12 10.00 Partly Cloudy SCT060 86 73.4 66% 93 29.93 0.0
07 15:15 E 12 10.00 Mostly Cloudy BKN060 87.8 73.4 62% 96 29.94 0.0
07 14:55 SE 7 10.00 Partly Cloudy SCT060 87.8 73.4 62% 96 29.96 0.0
07 14:35 E 6 10.00 Mostly Cloudy BKN060 87.8 73.4 62% 96 29.96 0.0
07 14:15 Vrbl 7 10.00 Mostly Cloudy SCT050 BKN060 91.4 69.8 49% 97 29.97 0.0
07 13:55 W 12 G 17 10.00 Partly Cloudy FEW048 SCT055 89.6 69.8 91.2 67.8 52% 95 29.97 0.0
07 13:35 W 7 10.00 Mostly Cloudy SCT048 BKN055 89.6 69.8 52% 95 29.98 0.0
07 13:15 Vrbl 7 10.00 A Few Clouds FEW048 91.4 71.6 52% 99 29.98 0.0
07 12:55 SW 8 10.00 A Few Clouds FEW044 FEW049 89.6 71.6 55% 96 29.98 0.0
07 12:35 SW 7 10.00 Mostly Cloudy BKN040 BKN047 87.8 71.6 59% 94 29.99 0.0
07 12:15 W 7 10.00 Mostly Cloudy BKN038 86 71.6 62% 92 30 0.0
07 11:55 SW 7 10.00 A Few Clouds FEW036 87.8 73.4 62% 96 30 0.0
07 11:35 Vrbl 6 10.00 Fair CLR 86 71.6 62% 92 30.01 0.0
07 11:15 SW 8 10.00 Fair CLR 86 71.6 62% 92 30.01 0.0
07 10:55 S 8 10.00 Fair CLR 84.2 71.6 66% 90 30.02 0.0
07 10:35 SW 9 10.00 Fair CLR 84.2 71.6 66% 90 30.02 0.0
07 10:15 SW 9 10.00 Fair CLR 82.4 71.6 70% 87 30.02 0.0
07 09:55 S 12 10.00 Fair CLR 82.4 69.8 66% 86 30.02 0.0
07 09:35 S 7 10.00 Fair CLR 80.6 69.8 70% 84 30.02 0.0
07 09:15 S 7 10.00 Fair CLR 78.8 69.8 74% 81 30.02 0.0
07 08:55 S 8 10.00 Fair CLR 77 69.8 79% 79 30.02 0.0
07 08:35 S 5 10.00 Fair CLR 75.2 69.8 83% 75 30.02 0.0
07 07:55 Calm 10.00 Fair CLR 68 68 68.9 63.7 100% 30.02 0.0
07 07:35 N 1 10.00 Light Rain CLR 66.2 66.2 100% 30.02 0.0
07 07:16 Calm 4.00 Light Rain Fog/Mist CLR 66.2 66.2 100% 30.01 0.0
07 06:55 SW 2 10.00 Fair CLR 64.4 64.4 100% 30.01 0.0
07 06:35 W 3 10.00 Fair CLR 64.4 64.4 100% 30 0.0
07 06:15 W 2 10.00 Fair CLR 64.4 64.4 100% 29.99 0.0
07 05:55 S 1 10.00 Fair CLR 64.4 64.4 100% 29.98 0.0
07 05:35 SW 1 10.00 Fair CLR 66.2 66.2 100% 29.98 0.0
07 05:15 W 2 10.00 Fair CLR 66.2 66.2 100% 29.98 0.0
07 04:55 S 2 10.00 Fair CLR 66.2 66.2 100% 29.96 0.0
07 04:35 S 2 10.00 Fair CLR 66.2 66.2 100% 29.97 0.0
07 04:15 W 1 10.00 Fair CLR 66.2 66.2 100% 29.97 0.0
07 03:55 W 1 10.00 Fair CLR 66.2 66.2 100% 29.97 0.0
07 03:35 NW 2 10.00 Fair CLR 68 68 100% 29.97 0.0
07 03:15 W 2 10.00 Fair CLR 66.2 66.2 100% 29.98 0.0
07 02:55 W 2 10.00 Fair CLR 68 68 100% 29.99 0.0
07 02:36 W 1 10.00 Fair CLR 68 68 100% 29.99 0.0
07 02:15 Calm 10.00 Fair CLR 68 68 100% 29.99 0.0
07 01:55 SW 2 10.00 Fair CLR 68 68 79.2 68.9 100% 30 0.0
07 01:35 W 5 10.00 Fair CLR 69.8 68 94% 30.01 0.0
07 01:15 W 7 10.00 Fair CLR 73.4 69.8 89% 30.02 0.0
07 00:55 S 3 10.00 Fair CLR 75.2 69.8 83% 75 30.01 0.0
07 00:35 SE 5 10.00 Fair CLR 75.2 69.8 83% 75 30.01 0.0
07 00:15 SE 6 10.00 Fair CLR 75.2 69.8 83% 75 30.01 0.0
06 23:55 SE 7 10.00 Fair CLR 75.2 69.8 83% 75 30.01 0.0
06 23:35 SE 8 10.00 Fair CLR 75.2 69.8 83% 75 30.01 0.0
06 23:15 SE 8 10.00 Fair CLR 77 69.8 79% 79 30 0.0
06 22:35 SE 8 10.00 Fair CLR 77 69.8 79% 79 30.01 0.0
06 22:15 SE 7 10.00 Fair CLR 77 69.8 79% 79 30.02 0.0
06 21:55 SE 7 10.00 Fair CLR 77 69.8 79% 79 30.02 0.0
06 21:35 SE 6 10.00 Fair CLR 77 69.8 79% 79 30.02 0.0
06 21:15 SE 7 10.00 Fair CLR 77 68 74% 79 30.01 0.0
06 20:55 SE 7 10.00 Fair CLR 77 68 74% 79 30.01 0.0
06 20:35 SE 7 10.00 Fair CLR 77 66.2 69% 79 30 0.0
06 20:15 SE 7 10.00 Fair CLR 77 66.2 69% 79 30 0.0
06 19:55 SE 9 10.00 Fair CLR 78.8 66.2 87.1 79.2 65% 81 30 0.0
06 19:35 SE 9 10.00 Fair CLR 80.6 64.4 58% 82 30 0.0
06 19:15 SE 10 10.00 Fair CLR 80.6 64.4 58% 82 30 0.0
06 18:55 E 13 10.00 Fair CLR 82.4 64.4 55% 84 30 0.0
06 18:35 E 13 10.00 Fair CLR 82.4 62.6 51% 83 30 0.0
Date Time (edt) Wind (mph) Vis. (mi.) Weather Sky Cond. Air Dwpt Max. Min. Relative Humidity Wind Chill (°F) Heat Index (°F) altimeter (in) sea level (mb) 1 hr 3 hr 6 hr
6 hour
Temperature (ºF) Pressure Precipitation (in)